Time;durP1;ratioP1;P1;durP2;ratioP2;P2;SDS_P1;SDS_P2;PMS_P1;PMS_P2;Temp;Humidity;BMP_temperature;BMP_pressure;BME280_temperature;BME280_humidity;BME280_pressure;Samples;Min_cycle;Max_cycle;Signal;HPM_P1;HPM_P2
2023/03/17 00:02:09;;;;;;;8.88;1.20;;;;;;;;;;5085821;28;20078;-75
2023/03/17 00:04:39;;;;;;;3.47;1.30;;;;;;;;;;5085918;28;20039;-75
2023/03/17 00:07:15;;;;;;;3.58;1.10;;;;;;;;;;5085719;28;20048;-74
2023/03/17 00:09:45;;;;;;;;;;;;;;;;;;5086562;28;20052;-75
2023/03/17 00:12:16;;;;;;;5.15;1.30;;;;;;;;;;5086604;28;19935;-74
2023/03/17 00:14:47;;;;;;;4.32;1.13;;;;;;;;;;5086587;28;20052;-74
2023/03/17 00:17:19;;;;;;;6.07;1.15;;;;;;;;;;5085173;28;20071;-75
2023/03/17 00:19:52;;;;;;;4.18;1.33;;;;;;;;;;5086745;28;20423;-75
2023/03/17 00:22:24;;;;;;;3.35;1.33;;;;;;;;;;5086208;28;20052;-72
2023/03/17 00:24:54;;;;;;;3.15;1.27;;;;;;;;;;5083813;28;20502;-75
2023/03/17 00:27:25;;;;;;;4.40;1.30;;;;;;;;;;5086659;28;20055;-73
2023/03/17 00:29:55;;;;;;;7.07;1.50;;;;;;;;;;5086505;28;20044;-74
2023/03/17 00:32:26;;;;;;;5.13;1.40;;;;;;;;;;5086036;28;20080;-75
2023/03/17 00:34:57;;;;;;;6.15;1.30;;;;;;;;;;5086208;28;20048;-74
2023/03/17 00:37:30;;;;;;;12.23;1.75;;;;;;;;;;5086376;28;20052;-77
2023/03/17 00:40:01;;;;;;;9.52;1.65;;;;;;;;;;5085895;28;20048;-76
2023/03/17 00:42:31;;;;;;;4.28;1.38;;;;;;;;;;5084902;28;20051;-76
2023/03/17 00:45:02;;;;;;;7.93;1.73;;;;;;;;;;5084696;28;20545;-75
2023/03/17 00:47:37;;;;;;;7.68;2.30;;;;;;;;;;5086836;28;20072;-75
2023/03/17 00:50:14;;;;;;;11.35;2.03;;;;;;;;;;5085962;28;20059;-75
2023/03/17 00:52:45;;;;;;;8.30;2.35;;;;;;;;;;5085806;28;20040;-73
2023/03/17 00:55:15;;;;;;;6.70;2.10;;;;;;;;;;5086027;28;20059;-75
2023/03/17 00:57:48;;;;;;;6.85;2.30;;;;;;;;;;5085673;28;20059;-74
2023/03/17 01:00:28;;;;;;;5.35;2.40;;;;;;;;;;5100862;28;20054;-74
2023/03/17 01:02:58;;;;;;;6.35;2.35;;;;;;;;;;5106464;28;20051;-73
2023/03/17 01:05:28;;;;;;;9.82;2.83;;;;;;;;;;5106120;28;20047;-75
2023/03/17 01:07:58;;;;;;;6.35;2.45;;;;;;;;;;5106294;28;20050;-74
2023/03/17 01:10:30;;;;;;;8.30;2.58;;;;;;;;;;5106584;28;20051;-72
2023/03/17 01:13:01;;;;;;;6.03;2.60;;;;;;;;;;5102906;28;20815;-74
2023/03/17 01:15:33;;;;;;;7.28;2.50;;;;;;;;;;5103291;28;20082;-72
2023/03/17 01:18:04;;;;;;;5.43;2.50;;;;;;;;;;5107618;28;20379;-73
2023/03/17 01:20:35;;;;;;;7.55;2.53;;;;;;;;;;5091260;28;20060;-74
2023/03/17 01:23:07;;;;;;;8.45;2.65;;;;;;;;;;5108422;28;20055;-73
2023/03/17 01:25:41;;;;;;;5.32;2.95;;;;;;;;;;5108283;28;20047;-73
2023/03/17 01:28:18;;;;;;;5.22;3.00;;;;;;;;;;5109888;28;20044;-75
2023/03/17 01:30:49;;;;;;;5.35;2.95;;;;;;;;;;5109480;28;20056;-73
2023/03/17 01:33:21;;;;;;;5.30;2.80;;;;;;;;;;5107458;28;20409;-75
2023/03/17 01:35:51;;;;;;;4.75;2.88;;;;;;;;;;5110006;28;20048;-73
2023/03/17 01:38:21;;;;;;;10.05;3.03;;;;;;;;;;5107534;28;20062;-73
2023/03/17 01:40:53;;;;;;;6.40;2.83;;;;;;;;;;5109549;28;20046;-74
2023/03/17 01:43:28;;;;;;;8.27;2.97;;;;;;;;;;5107989;28;20063;-74
2023/03/17 01:46:24;;;;;;;6.30;2.78;;;;;;;;;;5109194;28;20611;-73
2023/03/17 01:49:04;;;;;;;10.75;3.05;;;;;;;;;;5109644;28;20043;-72
2023/03/17 01:51:41;;;;;;;6.00;3.30;;;;;;;;;;5109436;28;20043;-72
2023/03/17 01:54:39;;;;;;;9.10;3.78;;;;;;;;;;5106774;28;20048;-73
2023/03/17 01:57:25;;;;;;;10.05;3.47;;;;;;;;;;5108317;28;20055;-72
2023/03/17 02:00:05;;;;;;;11.30;3.22;;;;;;;;;;5107416;28;20063;-73
2023/03/17 02:02:44;;;;;;;6.05;2.80;;;;;;;;;;5109353;28;20054;-73
2023/03/17 02:05:20;;;;;;;6.25;2.90;;;;;;;;;;5109293;28;20635;-72
2023/03/17 02:07:54;;;;;;;3.90;3.25;;;;;;;;;;5109196;28;20043;-76
2023/03/17 02:10:29;;;;;;;19.20;3.70;;;;;;;;;;5091020;28;20047;-75
2023/03/17 02:13:04;;;;;;;6.00;3.45;;;;;;;;;;5108590;28;20054;-74
2023/03/17 02:15:45;;;;;;;6.05;2.80;;;;;;;;;;5107501;28;20051;-75
2023/03/17 02:18:18;;;;;;;5.35;3.25;;;;;;;;;;5108772;28;20047;-74
2023/03/17 02:20:48;;;;;;;6.95;3.13;;;;;;;;;;5108735;28;20050;-72
2023/03/17 02:23:22;;;;;;;17.45;3.33;;;;;;;;;;5108793;28;20054;-74
2023/03/17 02:25:54;;;;;;;6.18;3.08;;;;;;;;;;5108986;28;20058;-73
2023/03/17 02:28:29;;;;;;;7.43;3.15;;;;;;;;;;5107667;28;20054;-73
2023/03/17 02:31:00;;;;;;;5.60;3.15;;;;;;;;;;5108536;28;20051;-73
2023/03/17 02:33:30;;;;;;;7.47;3.33;;;;;;;;;;5108670;28;20046;-73
2023/03/17 02:36:02;;;;;;;8.43;3.90;;;;;;;;;;5107622;28;20564;-74
2023/03/17 02:38:32;;;;;;;6.25;3.55;;;;;;;;;;5108082;28;20058;-74
2023/03/17 02:41:02;;;;;;;5.95;3.58;;;;;;;;;;5108511;28;20058;-74
2023/03/17 02:43:32;;;;;;;5.72;3.83;;;;;;;;;;5108314;28;20050;-73
2023/03/17 02:46:04;;;;;;;7.68;3.28;;;;;;;;;;5108603;28;20040;-74
2023/03/17 02:48:37;;;;;;;7.38;3.60;;;;;;;;;;5106811;28;20058;-74
2023/03/17 02:51:08;;;;;;;8.85;3.58;;;;;;;;;;5108346;28;20035;-73
2023/03/17 02:53:38;;;;;;;6.95;3.35;;;;;;;;;;5108438;28;20054;-74
2023/03/17 02:56:09;;;;;;;5.97;3.45;;;;;;;;;;5107741;28;20785;-71
2023/03/17 02:58:39;;;;;;;8.18;3.30;;;;;;;;;;5107950;28;20046;-73
2023/03/17 03:01:11;;;;;;;7.32;3.70;;;;;;;;;;5106680;28;20047;-73
2023/03/17 03:03:42;;;;;;;5.05;3.13;;;;;;;;;;5107910;28;20044;-74
2023/03/17 03:06:11;;;;;;;5.45;3.03;;;;;;;;;;5106205;28;20399;-74
2023/03/17 03:08:42;;;;;;;5.88;3.20;;;;;;;;;;5107894;28;20055;-76
2023/03/17 03:11:13;;;;;;;4.45;3.30;;;;;;;;;;5107040;28;20055;-75
2023/03/17 03:13:45;;;;;;;6.25;3.17;;;;;;;;;;5108145;28;20046;-73
2023/03/17 03:16:16;;;;;;;6.20;3.13;;;;;;;;;;5108177;28;20051;-73
2023/03/17 03:18:46;;;;;;;6.63;3.22;;;;;;;;;;5105659;28;20052;-70
2023/03/17 03:21:17;;;;;;;10.02;3.88;;;;;;;;;;5108057;28;20054;-71
2023/03/17 03:23:48;;;;;;;6.22;3.78;;;;;;;;;;5107230;28;20052;-74
2023/03/17 03:26:19;;;;;;;6.88;3.38;;;;;;;;;;5107347;28;20047;-71
2023/03/17 03:28:50;;;;;;;9.98;3.63;;;;;;;;;;5107317;28;20039;-74
2023/03/17 03:31:21;;;;;;;8.70;3.72;;;;;;;;;;5107515;28;20062;-73
2023/03/17 03:33:52;;;;;;;8.20;3.58;;;;;;;;;;5106859;28;20055;-72
2023/03/17 03:36:24;;;;;;;8.95;3.80;;;;;;;;;;5107256;28;20046;-74
2023/03/17 03:38:54;;;;;;;5.75;3.35;;;;;;;;;;5107124;28;20052;-73
2023/03/17 03:41:27;;;;;;;5.45;3.53;;;;;;;;;;5107249;28;20041;-72
2023/03/17 03:43:58;;;;;;;6.03;3.55;;;;;;;;;;5107116;28;20055;-72
2023/03/17 03:46:28;;;;;;;4.75;3.17;;;;;;;;;;5105987;28;20039;-72
2023/03/17 03:48:58;;;;;;;7.35;3.85;;;;;;;;;;5105533;28;20418;-72
2023/03/17 03:51:28;;;;;;;10.75;3.58;;;;;;;;;;5107134;28;20035;-72
2023/03/17 03:54:00;;;;;;;6.93;3.58;;;;;;;;;;5106615;28;20517;-73
2023/03/17 03:56:31;;;;;;;4.32;3.25;;;;;;;;;;5107779;28;20046;-73
2023/03/17 03:59:02;;;;;;;8.02;3.72;;;;;;;;;;5106980;28;20044;-72
2023/03/17 04:01:33;;;;;;;5.65;3.78;;;;;;;;;;5107195;28;20055;-71
2023/03/17 04:04:04;;;;;;;12.70;3.55;;;;;;;;;;5104959;28;20052;-73
2023/03/17 04:06:35;;;;;;;6.38;3.58;;;;;;;;;;5106863;28;20524;-73
2023/03/17 04:09:06;;;;;;;5.75;3.90;;;;;;;;;;5107421;28;20047;-76
2023/03/17 04:11:37;;;;;;;6.00;3.75;;;;;;;;;;5106673;28;20044;-74
2023/03/17 04:14:08;;;;;;;5.63;3.60;;;;;;;;;;5106752;28;20537;-74
2023/03/17 04:16:38;;;;;;;6.70;3.60;;;;;;;;;;5107000;28;20505;-72
2023/03/17 04:19:11;;;;;;;7.40;3.83;;;;;;;;;;5106715;28;20044;-72
2023/03/17 04:21:42;;;;;;;4.70;4.13;;;;;;;;;;5107397;28;20557;-71
2023/03/17 04:24:13;;;;;;;4.30;3.63;;;;;;;;;;5106601;28;20040;-74
2023/03/17 04:26:44;;;;;;;7.45;3.72;;;;;;;;;;5106196;28;20056;-73
2023/03/17 04:29:15;;;;;;;6.15;3.50;;;;;;;;;;5107020;28;20506;-72
2023/03/17 04:31:45;;;;;;;7.55;4.20;;;;;;;;;;5106788;28;20050;-73
2023/03/17 04:34:18;;;;;;;6.50;4.05;;;;;;;;;;5106862;28;20051;-73
2023/03/17 04:36:49;;;;;;;7.68;3.78;;;;;;;;;;5106545;28;20048;-73
2023/03/17 04:39:20;;;;;;;4.40;3.65;;;;;;;;;;5106608;28;20051;-73
2023/03/17 04:41:50;;;;;;;4.72;3.83;;;;;;;;;;5106379;28;20055;-71
2023/03/17 04:44:20;;;;;;;7.97;3.92;;;;;;;;;;5106537;28;20043;-74
2023/03/17 04:46:51;;;;;;;5.05;3.42;;;;;;;;;;5106682;28;20539;-72
2023/03/17 04:49:22;;;;;;;5.95;3.72;;;;;;;;;;5106632;28;20044;-71
2023/03/17 04:51:52;;;;;;;9.27;4.25;;;;;;;;;;5107718;28;20048;-75
2023/03/17 04:54:23;;;;;;;6.63;3.45;;;;;;;;;;5111326;28;20406;-73
2023/03/17 04:56:53;;;;;;;8.75;3.90;;;;;;;;;;5110536;28;20391;-75
2023/03/17 04:59:23;;;;;;;5.68;3.20;;;;;;;;;;5110503;28;20047;-73
2023/03/17 05:01:53;;;;;;;8.95;3.75;;;;;;;;;;5108155;28;20536;-74
2023/03/17 05:04:23;;;;;;;5.97;3.53;;;;;;;;;;5109747;28;20050;-74
2023/03/17 05:07:00;;;;;;;7.03;3.72;;;;;;;;;;5110170;28;20039;-74
2023/03/17 05:09:31;;;;;;;8.40;3.65;;;;;;;;;;5109988;28;20048;-74
2023/03/17 05:12:02;;;;;;;8.32;3.50;;;;;;;;;;5109898;28;20043;-74
2023/03/17 05:14:32;;;;;;;5.32;3.70;;;;;;;;;;5110376;28;20109;-72
2023/03/17 05:17:05;;;;;;;6.78;3.47;;;;;;;;;;5110575;28;20520;-74
2023/03/17 05:19:36;;;;;;;5.30;3.60;;;;;;;;;;5109984;28;20051;-73
2023/03/17 05:22:07;;;;;;;6.63;3.15;;;;;;;;;;5108951;28;20059;-75
2023/03/17 05:24:38;;;;;;;7.45;3.50;;;;;;;;;;5110393;28;20510;-74
2023/03/17 05:27:08;;;;;;;10.43;3.65;;;;;;;;;;5107770;28;20086;-73
2023/03/17 05:29:39;;;;;;;9.95;3.67;;;;;;;;;;5109622;28;20051;-73
2023/03/17 05:32:10;;;;;;;5.35;3.53;;;;;;;;;;5109412;28;20047;-74
2023/03/17 05:34:41;;;;;;;6.53;3.38;;;;;;;;;;5107447;28;20051;-74
2023/03/17 05:37:11;;;;;;;9.93;3.53;;;;;;;;;;5110129;28;20500;-74
2023/03/17 05:39:42;;;;;;;7.55;3.70;;;;;;;;;;5110165;28;20510;-75
2023/03/17 05:42:13;;;;;;;7.47;3.90;;;;;;;;;;5109414;28;20071;-73
2023/03/17 05:44:44;;;;;;;8.35;4.15;;;;;;;;;;5108857;28;20059;-73
2023/03/17 05:47:14;;;;;;;5.03;3.60;;;;;;;;;;5109291;28;20062;-73
2023/03/17 05:49:46;;;;;;;6.18;3.22;;;;;;;;;;5108934;28;20055;-72
2023/03/17 05:52:17;;;;;;;4.13;3.33;;;;;;;;;;5109347;28;20052;-73
2023/03/17 05:54:47;;;;;;;5.57;3.83;;;;;;;;;;5109491;28;20039;-74
2023/03/17 05:57:18;;;;;;;5.60;3.65;;;;;;;;;;5109271;28;20532;-75
2023/03/17 05:59:49;;;;;;;7.72;3.60;;;;;;;;;;5107690;28;20058;-73
2023/03/17 06:02:20;;;;;;;9.75;3.50;;;;;;;;;;5109390;28;20382;-72
2023/03/17 06:04:51;;;;;;;9.43;4.00;;;;;;;;;;5108581;28;20414;-74
2023/03/17 06:07:21;;;;;;;5.68;3.67;;;;;;;;;;5107197;28;20058;-73
2023/03/17 06:09:52;;;;;;;7.40;3.75;;;;;;;;;;5108748;28;20039;-73
2023/03/17 06:12:24;;;;;;;6.47;4.00;;;;;;;;;;5107025;28;20043;-75
2023/03/17 06:14:55;;;;;;;6.97;3.72;;;;;;;;;;5108974;28;20044;-75
2023/03/17 06:17:25;;;;;;;5.50;3.72;;;;;;;;;;5106797;28;20140;-73
2023/03/17 06:19:56;;;;;;;8.13;3.60;;;;;;;;;;5109265;28;20058;-75
2023/03/17 06:22:26;;;;;;;6.20;3.55;;;;;;;;;;5109794;28;20047;-73
2023/03/17 06:24:56;;;;;;;6.13;3.95;;;;;;;;;;5109068;28;20047;-75
2023/03/17 06:27:26;;;;;;;5.65;3.47;;;;;;;;;;5109368;28;20063;-73
2023/03/17 06:29:59;;;;;;;6.78;3.65;;;;;;;;;;5108692;28;20039;-73
2023/03/17 06:32:31;;;;;;;5.57;3.47;;;;;;;;;;5108850;28;20040;-74
2023/03/17 06:35:04;;;;;;;7.55;3.88;;;;;;;;;;5108683;28;20040;-72
2023/03/17 06:37:35;;;;;;;7.72;3.58;;;;;;;;;;5108430;28;20047;-74
2023/03/17 06:40:09;;;;;;;5.25;3.65;;;;;;;;;;5106960;28;20062;-75
2023/03/17 06:42:39;;;;;;;5.88;3.83;;;;;;;;;;5108570;28;20051;-72
2023/03/17 06:45:10;;;;;;;5.47;3.72;;;;;;;;;;5108398;28;20039;-74
2023/03/17 06:47:41;;;;;;;7.50;3.75;;;;;;;;;;5107996;28;20644;-72
2023/03/17 06:50:12;;;;;;;6.45;3.60;;;;;;;;;;5108338;28;20054;-74
2023/03/17 06:52:43;;;;;;;5.05;3.30;;;;;;;;;;5108663;28;20043;-74
2023/03/17 06:55:16;;;;;;;6.43;3.47;;;;;;;;;;5107134;28;20047;-72
2023/03/17 06:57:46;;;;;;;5.20;3.65;;;;;;;;;;5108085;28;20533;-72
2023/03/17 07:00:21;;;;;;;9.60;3.92;;;;;;;;;;5108141;28;20094;-74
2023/03/17 07:02:52;;;;;;;4.88;3.90;;;;;;;;;;5106436;28;20502;-73
2023/03/17 07:05:22;;;;;;;7.95;3.33;;;;;;;;;;5108252;28;20056;-74
2023/03/17 07:07:52;;;;;;;6.70;3.75;;;;;;;;;;5107961;28;20047;-75
2023/03/17 07:10:24;;;;;;;6.20;4.03;;;;;;;;;;5108405;28;20059;-74
2023/03/17 07:12:55;;;;;;;6.20;3.65;;;;;;;;;;5107712;28;20543;-81
2023/03/17 07:15:26;;;;;;;5.65;3.65;;;;;;;;;;5107322;28;20050;-74
2023/03/17 07:17:57;;;;;;;6.78;3.92;;;;;;;;;;5105604;28;20055;-74
2023/03/17 07:20:27;;;;;;;6.10;4.07;;;;;;;;;;5107233;28;20062;-75
2023/03/17 07:22:59;;;;;;;5.70;3.97;;;;;;;;;;5107513;28;20506;-74
2023/03/17 07:25:30;;;;;;;7.40;4.13;;;;;;;;;;5107519;28;20066;-72
2023/03/17 07:28:02;;;;;;;8.52;4.10;;;;;;;;;;5107478;28;20047;-73
2023/03/17 07:30:32;;;;;;;8.00;3.88;;;;;;;;;;5107568;28;20055;-73
2023/03/17 07:33:04;;;;;;;4.75;3.88;;;;;;;;;;5107607;28;20050;-73
2023/03/17 07:35:35;;;;;;;7.55;3.97;;;;;;;;;;5106864;28;20056;-74
2023/03/17 07:38:05;;;;;;;5.43;3.80;;;;;;;;;;5106309;28;20059;-75
2023/03/17 07:40:35;;;;;;;6.93;4.00;;;;;;;;;;5107339;28;20052;-73
2023/03/17 07:43:05;;;;;;;6.32;3.75;;;;;;;;;;5105957;28;20073;-73
2023/03/17 07:45:37;;;;;;;4.72;3.63;;;;;;;;;;5107071;28;20066;-74
2023/03/17 07:48:08;;;;;;;8.23;3.28;;;;;;;;;;5107488;28;20044;-72
2023/03/17 07:50:39;;;;;;;6.93;3.63;;;;;;;;;;5105196;28;20405;-75
2023/03/17 07:53:09;;;;;;;4.65;3.17;;;;;;;;;;5107244;28;20047;-73
2023/03/17 07:55:41;;;;;;;4.72;3.35;;;;;;;;;;5107196;28;20075;-72
2023/03/17 07:58:12;;;;;;;6.15;3.58;;;;;;;;;;5107146;28;20054;-74
2023/03/17 08:00:43;;;;;;;5.38;3.75;;;;;;;;;;5106955;28;20063;-74
2023/03/17 08:03:14;;;;;;;5.40;3.53;;;;;;;;;;5107028;28;20054;-72
2023/03/17 08:05:45;;;;;;;5.72;3.33;;;;;;;;;;5107468;28;20043;-72
2023/03/17 08:08:16;;;;;;;4.78;3.30;;;;;;;;;;5106975;28;20422;-73
2023/03/17 08:10:46;;;;;;;3.47;2.88;;;;;;;;;;5105521;28;20044;-74
2023/03/17 08:13:17;;;;;;;4.22;2.80;;;;;;;;;;5107127;28;20406;-73
2023/03/17 08:15:48;;;;;;;6.22;3.33;;;;;;;;;;5105165;28;20055;-72
2023/03/17 08:18:18;;;;;;;5.68;3.15;;;;;;;;;;5106542;28;20043;-73
2023/03/17 08:20:50;;;;;;;4.85;3.20;;;;;;;;;;5105367;28;20043;-73
2023/03/17 08:23:21;;;;;;;6.63;3.30;;;;;;;;;;5106803;28;20051;-74
2023/03/17 08:25:57;;;;;;;8.93;2.95;;;;;;;;;;5106360;28;20446;-72
2023/03/17 08:28:29;;;;;;;7.72;3.20;;;;;;;;;;5110693;28;20433;-74
2023/03/17 08:31:12;;;;;;;3.42;2.63;;;;;;;;;;5109615;28;20418;-74
2023/03/17 08:33:45;;;;;;;5.22;2.65;;;;;;;;;;5111506;28;20048;-74
2023/03/17 08:36:20;;;;;;;3.40;2.47;;;;;;;;;;5109847;28;20062;-75
2023/03/17 08:38:51;;;;;;;6.93;2.75;;;;;;;;;;5111896;28;20418;-76
2023/03/17 08:41:23;;;;;;;5.47;2.50;;;;;;;;;;5110763;28;20047;-77
2023/03/17 08:43:55;;;;;;;3.95;2.53;;;;;;;;;;5112545;28;20043;-76
2023/03/17 08:46:33;;;;;;;3.40;2.50;;;;;;;;;;5114968;28;20044;-78
2023/03/17 08:49:03;;;;;;;3.83;2.33;;;;;;;;;;5112973;28;20051;-77
2023/03/17 08:51:36;;;;;;;4.60;2.60;;;;;;;;;;5114208;28;20062;-79
2023/03/17 08:54:07;;;;;;;3.55;2.65;;;;;;;;;;5113428;28;20044;-78
2023/03/17 08:56:39;;;;;;;5.88;2.88;;;;;;;;;;5114069;28;20043;-78
2023/03/17 08:59:10;;;;;;;3.95;2.92;;;;;;;;;;5116629;28;20043;-74
2023/03/17 09:01:40;;;;;;;5.53;3.05;;;;;;;;;;5115404;28;20414;-78
2023/03/17 09:04:11;;;;;;;2.95;2.20;;;;;;;;;;5115868;28;20051;-78
2023/03/17 09:06:41;;;;;;;3.75;2.40;;;;;;;;;;5112492;28;20048;-76
2023/03/17 09:09:33;;;;;;;3.97;2.33;;;;;;;;;;5112176;28;20048;-78
2023/03/17 09:12:06;;;;;;;4.65;2.58;;;;;;;;;;5111191;28;20074;-74
2023/03/17 09:14:39;;;;;;;4.78;2.50;;;;;;;;;;5113793;28;20048;-81
2023/03/17 09:17:14;;;;;;;6.63;3.10;;;;;;;;;;5117967;28;20044;-76
2023/03/17 09:19:44;;;;;;;4.20;2.92;;;;;;;;;;5117380;28;20055;-76
2023/03/17 09:22:17;;;;;;;3.83;2.65;;;;;;;;;;5118052;28;20040;-77
2023/03/17 09:24:49;;;;;;;8.10;2.53;;;;;;;;;;5117889;28;20048;-77
2023/03/17 09:27:20;;;;;;;6.95;2.63;;;;;;;;;;5115688;28;20054;-79
2023/03/17 09:29:51;;;;;;;4.43;1.92;;;;;;;;;;5119828;28;20048;-76
2023/03/17 09:32:21;;;;;;;4.57;2.28;;;;;;;;;;5119219;28;20048;-74
2023/03/17 09:34:53;;;;;;;5.85;2.13;;;;;;;;;;5117660;28;20035;-75
2023/03/17 09:37:24;;;;;;;4.50;2.05;;;;;;;;;;5115621;28;20048;-75
2023/03/17 09:39:53;;;;;;;5.63;2.13;;;;;;;;;;5114491;28;20047;-75
2023/03/17 09:42:32;;;;;;;3.00;2.22;;;;;;;;;;5113804;28;20052;-75
2023/03/17 09:45:17;;;;;;;4.05;2.30;;;;;;;;;;5113342;28;20058;-75
2023/03/17 09:47:55;;;;;;;3.67;2.00;;;;;;;;;;5112799;28;20383;-74
2023/03/17 09:50:33;;;;;;;3.53;1.92;;;;;;;;;;5116858;28;20035;-75
2023/03/17 09:53:11;;;;;;;6.97;1.70;;;;;;;;;;5115127;28;20056;-77
2023/03/17 09:55:45;;;;;;;4.32;2.13;;;;;;;;;;5115487;28;20043;-77
2023/03/17 09:58:20;;;;;;;3.42;2.08;;;;;;;;;;5114231;28;20048;-78
2023/03/17 10:00:51;;;;;;;5.10;1.90;;;;;;;;;;5113492;28;20063;-78
2023/03/17 10:03:24;;;;;;;3.95;1.90;;;;;;;;;;5118338;28;20056;-75
2023/03/17 10:06:11;;;;;;;4.57;1.85;;;;;;;;;;5117939;28;20052;-77
2023/03/17 10:09:15;;;;;;;3.47;1.92;;;;;;;;;;5118433;28;20057;-78
2023/03/17 10:11:47;;;;;;;2.05;1.65;;;;;;;;;;5088206;28;20063;-75
2023/03/17 10:14:27;;;;;;;2.33;1.83;;;;;;;;;;5117605;28;20498;-74
2023/03/17 10:17:09;;;;;;;7.18;2.15;;;;;;;;;;5118356;28;20059;-75
2023/03/17 10:19:48;;;;;;;4.35;1.90;;;;;;;;;;5117780;28;20039;-77
2023/03/17 10:22:22;;;;;;;5.65;2.17;;;;;;;;;;5113651;28;20032;-77
2023/03/17 10:24:57;;;;;;;5.47;2.25;;;;;;;;;;5114440;28;20047;-78
2023/03/17 10:27:35;;;;;;;3.08;1.98;;;;;;;;;;5115316;28;20058;-76
2023/03/17 10:30:19;;;;;;;5.25;2.03;;;;;;;;;;5102118;28;20376;-76
2023/03/17 10:32:51;;;;;;;4.82;2.00;;;;;;;;;;5091379;28;20052;-78
2023/03/17 10:35:23;;;;;;;3.58;2.38;;;;;;;;;;5089467;28;20506;-74
2023/03/17 10:37:55;;;;;;;3.38;2.08;;;;;;;;;;5092983;28;20059;-76
2023/03/17 10:40:47;;;;;;;6.97;3.00;;;;;;;;;;5093305;28;20067;-78
2023/03/17 10:43:21;;;;;;;7.28;2.47;;;;;;;;;;5090754;28;20491;-75
2023/03/17 10:46:01;;;;;;;11.63;1.95;;;;;;;;;;5088354;28;20505;-79
2023/03/17 10:48:37;;;;;;;6.05;2.30;;;;;;;;;;5090300;28;20063;-77
2023/03/17 10:51:10;;;;;;;4.95;1.88;;;;;;;;;;5090611;28;20040;-76
2023/03/17 10:53:44;;;;;;;4.93;2.03;;;;;;;;;;5090605;28;20039;-77
2023/03/17 10:56:29;;;;;;;3.13;1.75;;;;;;;;;;5091316;28;20497;-78
2023/03/17 10:59:13;;;;;;;2.90;1.60;;;;;;;;;;5090374;28;20044;-79
2023/03/17 11:01:51;;;;;;;2.55;1.40;;;;;;;;;;5089073;28;20048;-74
2023/03/17 11:04:41;;;;;;;2.40;1.40;;;;;;;;;;5089559;28;20052;-73
2023/03/17 11:07:17;;;;;;;15.95;1.73;;;;;;;;;;5094300;28;20055;-77
2023/03/17 11:09:51;;;;;;;2.72;1.50;;;;;;;;;;5091050;28;20058;-79
2023/03/17 11:12:41;;;;;;;7.88;1.52;;;;;;;;;;5087518;28;20063;-77
2023/03/17 11:15:16;;;;;;;4.18;1.02;;;;;;;;;;5089899;28;20063;-77
2023/03/17 11:17:55;;;;;;;3.25;1.17;;;;;;;;;;5089168;28;20419;-79
2023/03/17 11:20:32;;;;;;;2.55;1.00;;;;;;;;;;5091393;28;20048;-72
2023/03/17 11:23:21;;;;;;;2.28;1.00;;;;;;;;;;5089745;28;20051;-76
2023/03/17 11:26:06;;;;;;;6.07;0.98;;;;;;;;;;5087862;28;20503;-77
2023/03/17 11:28:41;;;;;;;7.60;0.90;;;;;;;;;;5089156;28;20395;-76
2023/03/17 11:31:30;;;;;;;4.70;1.10;;;;;;;;;;5090584;28;20052;-74
2023/03/17 11:34:13;;;;;;;5.45;1.23;;;;;;;;;;5088751;28;20036;-75
2023/03/17 11:37:11;;;;;;;3.80;1.13;;;;;;;;;;5083958;28;20040;-78
2023/03/17 11:40:11;;;;;;;3.00;1.00;;;;;;;;;;5084790;28;20059;-76
2023/03/17 11:43:15;;;;;;;3.83;1.13;;;;;;;;;;5088325;28;20054;-73
2023/03/17 11:46:04;;;;;;;9.15;1.48;;;;;;;;;;5087279;28;20044;-73
2023/03/17 11:49:17;;;;;;;7.03;1.10;;;;;;;;;;5086778;28;20510;-77
2023/03/17 11:51:52;;;;;;;10.30;3.30;;;;;;;;;;5060995;28;20056;-77
2023/03/17 11:54:44;;;;;;;9.80;2.72;;;;;;;;;;5085715;28;20056;-77
2023/03/17 11:57:23;;;;;;;2.55;0.90;;;;;;;;;;5086764;28;20045;-78
2023/03/17 11:59:55;;;;;;;5.28;1.08;;;;;;;;;;5086883;28;20052;-78
2023/03/17 12:02:29;;;;;;;5.50;1.10;;;;;;;;;;5083714;28;20044;-78
2023/03/17 12:05:03;;;;;;;9.60;1.30;;;;;;;;;;5088499;28;20047;-79
2023/03/17 12:07:43;;;;;;;9.82;1.48;;;;;;;;;;5087344;28;20136;-79
2023/03/17 12:10:33;;;;;;;5.13;1.02;;;;;;;;;;5087260;28;20052;-77
2023/03/17 12:13:28;;;;;;;3.90;1.10;;;;;;;;;;5086411;28;20048;-79
2023/03/17 12:16:03;;;;;;;4.13;1.25;;;;;;;;;;5084701;28;20055;-77
2023/03/17 12:18:41;;;;;;;12.85;1.30;;;;;;;;;;5086411;28;20111;-78
2023/03/17 12:21:31;;;;;;;11.23;1.77;;;;;;;;;;5086739;28;20495;-80
2023/03/17 12:24:30;;;;;;;5.57;1.13;;;;;;;;;;5086587;28;20047;-78
2023/03/17 12:27:15;;;;;;;16.88;1.55;;;;;;;;;;5087950;28;20044;-74
2023/03/17 12:29:50;;;;;;;2.60;0.85;;;;;;;;;;5088473;28;20402;-76
2023/03/17 12:32:47;;;;;;;11.90;4.68;;;;;;;;;;5088937;28;20043;-80
2023/03/17 12:35:33;;;;;;;5.00;1.00;;;;;;;;;;5067129;28;20055;-73
2023/03/17 12:38:08;;;;;;;12.50;1.45;;;;;;;;;;5092704;28;20055;-76
2023/03/17 12:40:51;;;;;;;6.78;1.63;;;;;;;;;;5092220;28;20048;-76
2023/03/17 12:43:39;;;;;;;10.18;1.95;;;;;;;;;;5090612;28;20059;-74
2023/03/17 12:46:34;;;;;;;5.38;1.20;;;;;;;;;;5089212;28;20044;-79
2023/03/17 12:49:17;;;;;;;9.25;1.20;;;;;;;;;;5086322;28;20556;-76
2023/03/17 12:52:07;;;;;;;8.10;1.00;;;;;;;;;;5085377;28;20059;-75
2023/03/17 12:54:43;;;;;;;6.38;1.10;;;;;;;;;;5090552;28;20047;-77
2023/03/17 12:57:28;;;;;;;3.47;0.85;;;;;;;;;;5091510;28;20060;-74
2023/03/17 13:00:20;;;;;;;3.95;1.00;;;;;;;;;;5087375;28;20040;-77
2023/03/17 13:03:12;;;;;;;4.38;1.00;;;;;;;;;;5090667;28;20040;-79
2023/03/17 13:05:49;;;;;;;7.60;1.20;;;;;;;;;;5091105;28;20049;-76
2023/03/17 13:08:30;;;;;;;4.95;0.82;;;;;;;;;;5091168;28;20044;-81
2023/03/17 13:11:15;;;;;;;5.63;1.00;;;;;;;;;;5092237;28;20048;-74
2023/03/17 13:13:54;;;;;;;2.47;0.88;;;;;;;;;;5092898;28;20403;-78
2023/03/17 13:16:31;;;;;;;1.58;0.60;;;;;;;;;;5092343;28;20052;-77
2023/03/17 13:19:22;;;;;;;3.40;0.80;;;;;;;;;;5090037;28;20051;-79
2023/03/17 13:22:12;;;;;;;1.80;0.80;;;;;;;;;;5092765;28;20052;-80
2023/03/17 13:24:46;;;;;;;4.82;1.30;;;;;;;;;;5091539;28;20060;-75
2023/03/17 13:27:32;;;;;;;4.72;0.90;;;;;;;;;;5090104;28;20110;-79
2023/03/17 13:30:26;;;;;;;3.45;1.27;;;;;;;;;;5090652;28;20055;-79
2023/03/17 13:33:22;;;;;;;2.50;1.02;;;;;;;;;;5090905;28;20055;-78
2023/03/17 13:36:02;;;;;;;2.70;0.70;;;;;;;;;;5090237;28;20044;-76
2023/03/17 13:39:06;;;;;;;3.78;1.00;;;;;;;;;;5090494;28;20059;-74
2023/03/17 13:42:12;;;;;;;7.03;0.75;;;;;;;;;;5090714;28;20048;-80
2023/03/17 13:45:12;;;;;;;4.47;0.90;;;;;;;;;;5090914;28;20506;-78
2023/03/17 13:47:43;;;;;;;3.03;0.93;;;;;;;;;;5089632;28;20051;-78
2023/03/17 13:50:30;;;;;;;2.63;0.68;;;;;;;;;;5089408;28;20434;-78
2023/03/17 13:53:07;;;;;;;3.22;1.13;;;;;;;;;;5092928;28;20498;-76
2023/03/17 13:55:40;;;;;;;3.88;0.80;;;;;;;;;;5090626;28;20067;-75
2023/03/17 13:58:11;;;;;;;2.33;0.80;;;;;;;;;;5090456;28;20040;-78
2023/03/17 14:00:47;;;;;;;3.85;0.80;;;;;;;;;;5089378;28;20048;-76
2023/03/17 14:03:42;;;;;;;3.40;0.68;;;;;;;;;;5088998;28;20052;-78
2023/03/17 14:06:14;;;;;;;3.17;0.63;;;;;;;;;;5089306;28;20525;-78
2023/03/17 14:09:09;;;;;;;1.38;0.60;;;;;;;;;;5094931;28;20411;-79
2023/03/17 14:11:45;;;;;;;1.50;0.68;;;;;;;;;;5089054;28;20414;-77
2023/03/17 14:14:23;;;;;;;1.67;0.77;;;;;;;;;;5090365;28;20422;-76
2023/03/17 14:17:10;;;;;;;2.95;1.08;;;;;;;;;;5091186;28;20040;-76
2023/03/17 14:20:08;;;;;;;5.07;1.40;;;;;;;;;;5095612;28;20047;-77
2023/03/17 14:22:44;;;;;;;1.85;0.80;;;;;;;;;;5089217;28;20415;-75
2023/03/17 14:25:20;;;;;;;2.50;0.82;;;;;;;;;;5090722;28;20522;-75
2023/03/17 14:27:53;;;;;;;3.63;1.50;;;;;;;;;;5089738;28;20036;-77
2023/03/17 14:30:25;;;;;;;7.32;1.02;;;;;;;;;;5091228;28;20041;-75
2023/03/17 14:32:59;;;;;;;16.23;1.35;;;;;;;;;;5090516;28;20067;-75
2023/03/17 14:35:41;;;;;;;;;;;;;;;;;;5089890;28;20547;-74
2023/03/17 14:38:23;;;;;;;3.85;1.13;;;;;;;;;;5092468;28;19926;-77
2023/03/17 14:41:25;;;;;;;2.42;0.80;;;;;;;;;;5088517;28;20122;-78
2023/03/17 14:44:00;;;;;;;3.10;0.90;;;;;;;;;;5088918;28;20047;-78
2023/03/17 14:46:32;;;;;;;;;;;;;;;;;;5089575;28;20399;-77
2023/03/17 14:49:16;;;;;;;2.03;0.70;;;;;;;;;;5090829;28;19943;-74
2023/03/17 14:51:52;;;;;;;2.20;0.90;;;;;;;;;;5087594;28;20052;-78
2023/03/17 14:54:32;;;;;;;3.58;0.70;;;;;;;;;;5087854;28;20387;-78
2023/03/17 14:57:07;;;;;;;2.17;0.93;;;;;;;;;;5087015;28;20051;-77
2023/03/17 14:59:41;;;;;;;20.75;1.20;;;;;;;;;;5087992;28;20410;-78
2023/03/17 15:02:22;;;;;;;4.25;1.40;;;;;;;;;;5088342;28;20044;-75
2023/03/17 15:04:57;;;;;;;3.38;0.90;;;;;;;;;;5091032;28;20048;-76
2023/03/17 15:07:35;;;;;;;6.65;0.80;;;;;;;;;;5087731;28;20636;-78
2023/03/17 15:10:23;;;;;;;3.70;0.88;;;;;;;;;;5088542;28;20410;-75
2023/03/17 15:13:06;;;;;;;2.30;0.80;;;;;;;;;;5088277;28;20052;-74
2023/03/17 15:15:40;;;;;;;4.20;1.05;;;;;;;;;;5087390;28;20040;-75
2023/03/17 15:18:14;;;;;;;3.63;0.98;;;;;;;;;;5088801;28;20040;-76
2023/03/17 15:20:44;;;;;;;11.70;1.10;;;;;;;;;;5088669;28;20032;-78
2023/03/17 15:23:21;;;;;;;2.90;1.02;;;;;;;;;;5088321;28;20525;-78
2023/03/17 15:25:57;;;;;;;5.07;0.93;;;;;;;;;;5087908;28;20048;-76
2023/03/17 15:28:30;;;;;;;3.30;0.95;;;;;;;;;;5087634;28;20404;-76
2023/03/17 15:31:13;;;;;;;2.63;0.70;;;;;;;;;;5087168;28;20522;-76
2023/03/17 15:33:44;;;;;;;3.33;1.00;;;;;;;;;;5087378;28;20047;-74